createdAt,value
2019-01-15T00:01:36.320Z,99.90
2019-01-15T00:04:05.298Z,99.90
2019-01-15T00:06:34.113Z,99.90
2019-01-15T00:09:03.394Z,99.90
2019-01-15T00:11:32.213Z,99.90
2019-01-15T00:14:01.026Z,99.90
2019-01-15T00:16:29.842Z,99.90
2019-01-15T00:18:58.812Z,99.90
2019-01-15T00:21:27.617Z,99.90
2019-01-15T00:23:56.424Z,99.90
2019-01-15T00:26:25.237Z,99.90
2019-01-15T00:28:54.205Z,99.90
2019-01-15T00:31:23.176Z,99.90
2019-01-15T00:33:51.996Z,99.90
2019-01-15T00:36:20.825Z,99.90
2019-01-15T00:38:49.689Z,99.90
2019-01-15T00:41:18.508Z,99.90
2019-01-15T00:43:47.356Z,99.90
2019-01-15T00:46:16.252Z,99.90
2019-01-15T00:48:45.076Z,99.90
2019-01-15T00:51:13.888Z,99.90
2019-01-15T00:53:42.828Z,99.90
2019-01-15T00:56:11.788Z,99.90
2019-01-15T00:58:40.580Z,99.90
2019-01-15T01:01:11.014Z,99.80
2019-01-15T01:03:39.918Z,99.90
2019-01-15T01:06:08.724Z,99.90
2019-01-15T01:08:37.611Z,99.90
2019-01-15T01:11:07.399Z,99.90
2019-01-15T01:13:36.393Z,99.90
2019-01-15T01:16:05.367Z,99.90
2019-01-15T01:18:34.175Z,99.90
2019-01-15T01:21:03.050Z,99.90
2019-01-15T01:23:31.894Z,99.80
2019-01-15T01:26:00.694Z,99.90
2019-01-15T01:28:29.593Z,99.90
2019-01-15T01:30:58.492Z,99.90
2019-01-15T01:33:27.300Z,99.60
2019-01-15T01:35:56.108Z,99.70
2019-01-15T01:38:24.990Z,99.90
2019-01-15T01:40:53.873Z,99.80
2019-01-15T01:43:22.821Z,99.40
2019-01-15T01:45:51.731Z,99.50
2019-01-15T01:48:20.627Z,99.30
2019-01-15T01:50:49.822Z,98.90
2019-01-15T01:53:18.714Z,99.00
2019-01-15T01:55:47.550Z,99.20
2019-01-15T01:58:16.439Z,98.90
2019-01-15T02:00:45.318Z,98.90
2019-01-15T02:03:14.184Z,98.90
2019-01-15T02:05:43.085Z,98.80
2019-01-15T02:08:12.062Z,98.20
2019-01-15T02:10:41.116Z,98.00
2019-01-15T02:13:10.137Z,98.10
2019-01-15T02:15:39.104Z,98.10
2019-01-15T02:18:07.979Z,98.30
2019-01-15T02:20:36.870Z,98.10
2019-01-15T02:23:05.932Z,98.20
2019-01-15T02:25:34.759Z,98.60
2019-01-15T02:28:03.633Z,98.60
2019-01-15T02:30:32.592Z,98.70
2019-01-15T02:33:01.565Z,98.90
2019-01-15T02:35:30.527Z,98.90
2019-01-15T02:37:59.607Z,98.80
2019-01-15T02:40:28.427Z,99.00
2019-01-15T02:42:57.415Z,99.10
2019-01-15T02:45:26.458Z,99.20
2019-01-15T02:47:55.353Z,99.40
2019-01-15T02:50:24.262Z,99.20
2019-01-15T02:52:53.077Z,99.30
2019-01-15T02:55:21.972Z,99.30
2019-01-15T02:57:50.953Z,98.90
2019-01-15T03:00:26.966Z,98.90
2019-01-15T03:02:55.927Z,99.00
2019-01-15T03:05:26.689Z,98.80
2019-01-15T03:07:55.716Z,98.60
2019-01-15T03:10:24.680Z,98.70
2019-01-15T03:12:56.613Z,98.80
2019-01-15T03:15:25.080Z,99.30
2019-01-15T03:17:54.454Z,99.10
2019-01-15T03:20:23.458Z,99.10
2019-01-15T03:22:52.415Z,99.00
2019-01-15T03:25:21.393Z,98.80
2019-01-15T03:27:50.322Z,99.10
2019-01-15T03:30:21.111Z,99.10
2019-01-15T03:32:50.155Z,99.20
2019-01-15T03:35:19.198Z,99.20
2019-01-15T03:37:48.115Z,99.20
2019-01-15T03:40:19.727Z,99.30
2019-01-15T03:42:48.709Z,99.40
2019-01-15T03:45:17.678Z,99.20
2019-01-15T03:47:46.503Z,99.20
2019-01-15T03:50:16.165Z,99.40
2019-01-15T03:52:45.013Z,99.40
2019-01-15T03:55:15.144Z,99.60
2019-01-15T03:57:44.302Z,99.50
2019-01-15T04:00:18.426Z,99.80
2019-01-15T04:02:47.493Z,99.40
2019-01-15T04:05:17.442Z,99.50
2019-01-15T04:07:47.322Z,99.30
2019-01-15T04:10:16.218Z,99.60
2019-01-15T04:12:45.196Z,99.60
2019-01-15T04:15:14.567Z,99.90
2019-01-15T04:17:43.486Z,99.90
2019-01-15T04:20:14.045Z,99.90
2019-01-15T04:22:43.019Z,99.90
2019-01-15T04:25:12.524Z,99.90
2019-01-15T04:27:41.518Z,99.90
2019-01-15T04:30:13.494Z,99.90
2019-01-15T04:32:42.482Z,99.90
2019-01-15T04:35:11.477Z,99.90
2019-01-15T04:37:40.453Z,99.90
2019-01-15T04:40:12.234Z,99.90
2019-01-15T04:42:41.144Z,99.90
2019-01-15T04:45:11.257Z,99.90
2019-01-15T04:47:40.163Z,99.90
2019-01-15T04:50:09.167Z,99.90
2019-01-15T04:52:39.114Z,99.90
2019-01-15T04:55:08.518Z,99.90
2019-01-15T04:57:37.502Z,99.90
2019-01-15T05:00:08.979Z,99.90
2019-01-15T05:02:38.973Z,99.90
2019-01-15T05:05:08.221Z,99.90
2019-01-15T05:07:37.205Z,99.90
2019-01-15T05:10:06.999Z,99.90
2019-01-15T05:12:35.815Z,99.90
2019-01-15T05:15:06.322Z,99.90
2019-01-15T05:17:35.229Z,99.90
2019-01-15T05:20:06.833Z,99.90
2019-01-15T05:22:35.665Z,99.90
2019-01-15T05:25:06.466Z,99.90
2019-01-15T05:27:35.363Z,99.90
2019-01-15T05:30:05.672Z,99.90
2019-01-15T05:32:34.554Z,99.90
2019-01-15T05:35:03.464Z,99.90
2019-01-15T05:37:32.381Z,99.90
2019-01-15T05:40:01.293Z,99.90
2019-01-15T05:42:33.548Z,99.90
2019-01-15T05:45:12.513Z,99.90
2019-01-15T05:47:41.841Z,99.90
2019-01-15T05:50:13.644Z,99.90
2019-01-15T05:52:42.626Z,99.90
2019-01-15T05:55:14.282Z,99.90
2019-01-15T05:57:43.114Z,99.90
2019-01-15T06:00:12.359Z,99.90
2019-01-15T06:02:41.361Z,99.90
2019-01-15T06:05:10.591Z,99.90
2019-01-15T06:07:39.482Z,99.90
2019-01-15T06:10:10.874Z,99.90
2019-01-15T06:12:39.855Z,99.90
2019-01-15T06:15:10.272Z,99.90
2019-01-15T06:17:45.290Z,99.90
2019-01-15T06:20:17.332Z,99.90
2019-01-15T06:22:49.357Z,99.90
2019-01-15T06:25:18.366Z,99.90
2019-01-15T06:27:47.346Z,99.80
2019-01-15T06:30:16.572Z,99.90
2019-01-15T06:32:45.547Z,99.80
2019-01-15T06:35:14.542Z,99.70
2019-01-15T06:37:43.701Z,99.70
2019-01-15T06:40:13.506Z,99.70
2019-01-15T06:42:42.574Z,99.50
2019-01-15T06:45:14.803Z,99.50
2019-01-15T06:47:43.808Z,99.40
2019-01-15T06:50:13.894Z,99.70
2019-01-15T06:52:43.000Z,99.20
2019-01-15T06:55:13.697Z,99.40
2019-01-15T06:57:42.673Z,99.30
2019-01-15T07:00:17.825Z,99.30
2019-01-15T07:02:46.801Z,99.20
2019-01-15T07:05:16.028Z,99.40
2019-01-15T07:07:44.966Z,99.90
2019-01-15T07:10:25.894Z,99.30
2019-01-15T07:12:54.806Z,99.10
2019-01-15T07:15:23.787Z,98.90
2019-01-15T07:17:52.704Z,99.00
2019-01-15T07:20:21.679Z,98.60
2019-01-15T07:22:50.649Z,98.60
2019-01-15T07:25:20.253Z,98.40
2019-01-15T07:27:49.230Z,98.40
2019-01-15T07:30:38.885Z,98.40
2019-01-15T07:33:08.858Z,98.50
2019-01-15T07:35:37.756Z,98.80
2019-01-15T07:38:06.728Z,99.30
2019-01-15T07:40:35.570Z,99.00
2019-01-15T07:43:04.557Z,98.90
2019-01-15T07:45:33.465Z,99.10
2019-01-15T07:48:02.432Z,99.10
2019-01-15T07:50:31.327Z,99.20
2019-01-15T07:53:00.217Z,99.20
2019-01-15T07:55:29.027Z,99.30
2019-01-15T07:57:57.952Z,99.10
2019-01-15T08:00:26.929Z,99.10
2019-01-15T08:02:55.922Z,99.10
2019-01-15T08:05:24.902Z,98.80
2019-01-15T08:07:53.870Z,98.90
2019-01-15T08:10:22.772Z,98.60
2019-01-15T08:12:52.025Z,98.30
2019-01-15T08:15:22.529Z,98.30
2019-01-15T08:17:51.496Z,98.20
2019-01-15T08:20:20.472Z,98.00
2019-01-15T08:22:49.526Z,97.80
2019-01-15T08:25:18.482Z,98.00
2019-01-15T08:27:53.145Z,98.10
2019-01-15T08:30:30.238Z,97.50
2019-01-15T08:33:05.337Z,97.50
2019-01-15T08:35:35.678Z,97.10
2019-01-15T08:38:07.779Z,96.90
2019-01-15T08:40:39.812Z,96.50
2019-01-15T08:43:10.201Z,96.60
2019-01-15T08:45:39.133Z,96.50
2019-01-15T08:48:19.457Z,96.40
2019-01-15T08:50:50.408Z,95.90
2019-01-15T08:53:22.763Z,96.10
2019-01-15T08:55:55.349Z,95.70
2019-01-15T08:58:24.364Z,95.10
2019-01-15T09:00:53.332Z,95.00
2019-01-15T09:03:22.340Z,95.00
2019-01-15T09:05:51.245Z,94.80
2019-01-15T09:08:20.273Z,95.10
2019-01-15T09:10:49.406Z,95.10
2019-01-15T09:13:18.372Z,93.00
2019-01-15T09:15:47.337Z,90.00
2019-01-15T09:18:16.299Z,85.00
2019-01-15T09:20:48.220Z,79.50
2019-01-15T09:23:17.040Z,75.20
2019-01-15T09:25:49.097Z,72.10
2019-01-15T09:28:21.176Z,69.80
2019-01-15T09:30:50.060Z,68.40
2019-01-15T09:33:19.037Z,67.00
2019-01-15T09:35:49.423Z,65.60
2019-01-15T09:38:21.697Z,65.80
2019-01-15T09:40:53.800Z,64.40
2019-01-15T09:43:22.709Z,62.50
2019-01-15T09:45:51.621Z,61.60
2019-01-15T09:48:27.319Z,64.30
2019-01-15T09:50:56.217Z,68.40
2019-01-15T09:53:25.113Z,71.40
2019-01-15T09:55:54.093Z,74.70
2019-01-15T09:58:23.084Z,77.40
2019-01-15T10:00:52.056Z,75.80
2019-01-15T10:03:20.967Z,74.30
2019-01-15T10:05:49.764Z,75.60
2019-01-15T10:08:18.753Z,78.60
2019-01-15T10:10:47.700Z,80.20
2019-01-15T10:13:16.612Z,81.30
2019-01-15T10:15:45.521Z,81.50
2019-01-15T10:18:14.399Z,82.40
2019-01-15T10:20:43.366Z,82.30
2019-01-15T10:23:13.221Z,81.90
2019-01-15T10:25:42.647Z,81.40
2019-01-15T10:28:12.236Z,81.00
2019-01-15T10:31:28.086Z,81.90
2019-01-15T10:34:01.598Z,81.60
2019-01-15T10:36:29.065Z,84.40
2019-01-15T10:38:57.886Z,81.20
2019-01-15T10:41:26.685Z,80.60
2019-01-15T10:43:55.661Z,80.80
2019-01-15T10:46:24.945Z,82.40
2019-01-15T10:48:53.825Z,80.00
2019-01-15T10:51:22.757Z,78.50
2019-01-15T10:53:51.577Z,78.50
2019-01-15T10:56:20.478Z,79.40
2019-01-15T10:58:49.428Z,79.60
2019-01-15T11:01:18.374Z,79.30
2019-01-15T11:03:47.264Z,79.80
2019-01-15T11:06:16.237Z,82.00
2019-01-15T11:08:45.121Z,82.60
2019-01-15T11:11:13.917Z,82.00
2019-01-15T11:13:42.729Z,80.80
2019-01-15T11:16:11.525Z,80.90
2019-01-15T11:18:40.356Z,81.10
2019-01-15T11:21:09.252Z,79.40
2019-01-15T11:23:38.179Z,78.40
2019-01-15T11:26:07.121Z,78.00
2019-01-15T11:28:35.938Z,78.10
2019-01-15T11:31:04.818Z,76.90
2019-01-15T11:33:33.781Z,76.10
2019-01-15T11:36:02.671Z,76.30
2019-01-15T11:38:31.631Z,76.70
2019-01-15T11:41:00.584Z,77.00
2019-01-15T11:43:29.485Z,77.50
2019-01-15T11:45:59.086Z,78.00
2019-01-15T11:48:27.984Z,80.40
2019-01-15T11:50:56.946Z,83.00
2019-01-15T11:53:25.752Z,86.40
2019-01-15T11:55:54.628Z,88.00
2019-01-15T11:58:23.449Z,89.70
2019-01-15T12:01:00.738Z,89.90
2019-01-15T12:03:51.766Z,90.10
2019-01-15T12:06:31.934Z,90.50
2019-01-15T12:09:38.241Z,90.50
2019-01-15T12:12:25.089Z,91.00
2019-01-15T12:15:16.059Z,91.30
2019-01-15T12:18:19.451Z,91.30
2019-01-15T12:21:16.600Z,91.10
2019-01-15T12:24:02.876Z,91.50
2019-01-15T12:26:53.711Z,91.20
2019-01-15T12:29:56.806Z,91.60
2019-01-15T12:32:40.185Z,92.00
2019-01-15T12:35:25.877Z,92.00
2019-01-15T12:38:12.564Z,92.50
2019-01-15T12:40:50.725Z,92.40
2019-01-15T12:43:47.777Z,92.40
2019-01-15T12:46:31.976Z,92.50
2019-01-15T12:49:18.894Z,92.30
2019-01-15T12:52:06.007Z,92.30
2019-01-15T12:55:06.406Z,92.50
2019-01-15T13:01:02.145Z,92.80
2019-01-15T13:03:50.037Z,92.60
2019-01-15T13:06:40.823Z,92.70
2019-01-15T13:09:41.422Z,92.50
2019-01-15T13:12:32.472Z,92.20
2019-01-15T13:15:34.776Z,92.30
2019-01-15T13:18:18.878Z,92.40
2019-01-15T13:21:22.006Z,92.20
2019-01-15T13:24:01.681Z,92.10
2019-01-15T13:27:01.622Z,92.50
2019-01-15T13:29:58.863Z,92.10
2019-01-15T13:32:52.867Z,92.40
2019-01-15T13:35:36.199Z,92.50
2019-01-15T13:38:26.170Z,92.10
2019-01-15T13:41:29.493Z,91.90
2019-01-15T13:44:12.180Z,91.80
2019-01-15T13:47:04.638Z,92.40
2019-01-15T13:49:51.265Z,91.70
2019-01-15T13:52:38.142Z,92.00
2019-01-15T13:55:29.745Z,91.90
2019-01-15T13:58:08.788Z,91.70
2019-01-15T14:01:08.856Z,92.30
2019-01-15T14:03:58.889Z,92.30
2019-01-15T14:06:48.497Z,92.20
2019-01-15T14:09:38.098Z,92.30
2019-01-15T14:12:17.491Z,92.40
2019-01-15T14:15:08.150Z,92.50
2019-01-15T14:17:53.352Z,92.30
2019-01-15T14:20:40.241Z,92.20
2019-01-15T14:23:24.833Z,92.10
2019-01-15T14:26:25.322Z,92.40
2019-01-15T14:29:12.470Z,92.60
2019-01-15T14:32:00.450Z,92.80
2019-01-15T14:34:55.532Z,92.60
2019-01-15T14:37:53.608Z,92.80
2019-01-15T14:40:40.223Z,92.80
2019-01-15T14:43:28.143Z,92.80
2019-01-15T14:46:14.810Z,92.60
2019-01-15T14:49:13.429Z,93.10
2019-01-15T14:52:07.662Z,92.80
2019-01-15T14:54:48.497Z,92.80
2019-01-15T14:57:45.609Z,92.90
2019-01-15T15:00:39.380Z,92.90
2019-01-15T15:03:39.641Z,93.00
2019-01-15T15:06:36.580Z,92.90
2019-01-15T15:09:26.595Z,92.90
2019-01-15T15:12:19.120Z,92.80
2019-01-15T15:15:07.707Z,92.80
2019-01-15T15:18:02.058Z,92.60
2019-01-15T15:21:08.853Z,92.70
2019-01-15T15:23:55.644Z,92.50
2019-01-15T15:26:42.640Z,92.10
2019-01-15T15:29:30.065Z,92.10
2019-01-15T15:32:13.269Z,91.90
2019-01-15T15:35:10.924Z,91.90
2019-01-15T15:37:55.305Z,91.80
2019-01-15T15:40:47.993Z,91.80
2019-01-15T15:43:34.819Z,92.00
2019-01-15T15:46:23.748Z,91.70
2019-01-15T15:49:14.797Z,91.50
2019-01-15T15:52:05.609Z,91.20
2019-01-15T15:54:56.389Z,91.10
2019-01-15T15:57:43.122Z,91.10
2019-01-15T16:00:26.708Z,90.90
2019-01-15T16:03:17.541Z,90.90
2019-01-15T16:06:17.528Z,91.10
2019-01-15T16:08:56.043Z,91.10
2019-01-15T16:11:50.135Z,91.30
2019-01-15T16:14:38.376Z,91.60
2019-01-15T16:17:44.572Z,91.60
2019-01-15T16:20:28.356Z,91.60
2019-01-15T16:23:21.841Z,91.80
2019-01-15T16:26:08.580Z,91.80
2019-01-15T16:28:55.558Z,92.00
2019-01-15T16:31:46.566Z,92.10
2019-01-15T16:34:33.217Z,92.10
2019-01-15T16:37:11.168Z,92.10
2019-01-15T16:39:58.022Z,92.30
2019-01-15T16:42:49.244Z,92.50
2019-01-15T16:45:46.160Z,92.50
2019-01-15T16:48:36.461Z,92.50
2019-01-15T16:51:20.596Z,92.50
2019-01-15T16:54:08.596Z,92.70
2019-01-15T16:57:11.955Z,92.90
2019-01-15T16:59:58.648Z,92.60
2019-01-15T17:02:37.950Z,92.80
2019-01-15T17:05:36.088Z,93.20
2019-01-15T17:08:36.197Z,93.30
2019-01-15T17:11:30.277Z,93.40
2019-01-15T17:14:30.096Z,93.60
2019-01-15T17:17:16.635Z,93.70
2019-01-15T17:20:00.388Z,93.60
2019-01-15T17:22:51.502Z,93.80
2019-01-15T17:25:38.192Z,93.90
2019-01-15T17:28:26.177Z,94.20
2019-01-15T17:31:26.096Z,94.40
2019-01-15T17:37:05.645Z,94.50
2019-01-15T17:39:42.132Z,94.40
2019-01-15T17:42:21.846Z,94.60
2019-01-15T17:45:18.845Z,94.60
2019-01-15T17:48:05.738Z,94.60
2019-01-15T17:50:56.854Z,94.60
2019-01-15T17:53:42.786Z,94.60
2019-01-15T17:56:24.109Z,94.50
2019-01-15T17:59:09.357Z,94.40
2019-01-15T18:01:57.407Z,94.40
2019-01-15T18:07:36.443Z,94.30
2019-01-15T18:10:27.657Z,94.30
2019-01-15T18:13:14.169Z,94.40
2019-01-15T18:16:02.226Z,94.30
2019-01-15T18:18:59.547Z,94.40
2019-01-15T18:21:46.377Z,94.40
2019-01-15T18:24:38.662Z,94.60
2019-01-15T18:27:21.718Z,94.50
2019-01-15T18:30:09.771Z,94.40
2019-01-15T18:32:57.747Z,94.60
2019-01-15T18:35:48.394Z,94.80
2019-01-15T18:38:35.296Z,94.60
2019-01-15T18:41:22.019Z,94.90
2019-01-15T18:44:19.812Z,94.80
2019-01-15T18:47:06.526Z,95.00
2019-01-15T18:49:47.492Z,95.10
2019-01-15T18:52:40.114Z,95.30
2019-01-15T18:55:30.980Z,95.40
2019-01-15T18:58:21.737Z,95.40
2019-01-15T19:01:12.489Z,95.50
2019-01-15T19:04:00.461Z,95.40
2019-01-15T19:06:37.959Z,95.50
2019-01-15T19:09:24.229Z,95.20
2019-01-15T19:12:27.342Z,95.20
2019-01-15T19:15:21.483Z,95.10
2019-01-15T19:18:01.045Z,95.10
2019-01-15T19:20:55.129Z,94.90
2019-01-15T19:23:52.116Z,94.90
2019-01-15T19:26:39.065Z,94.90
2019-01-15T19:29:27.093Z,94.90
2019-01-15T19:32:27.112Z,94.90
2019-01-15T19:35:13.772Z,94.70
2019-01-15T19:38:09.700Z,94.90
2019-01-15T19:40:53.693Z,94.90
2019-01-15T19:43:36.024Z,94.90
2019-01-15T19:46:21.621Z,94.80
2019-01-15T19:49:21.929Z,94.60
2019-01-15T19:52:18.737Z,94.40
2019-01-15T19:55:05.376Z,94.40
2019-01-15T19:57:57.046Z,94.20
2019-01-15T20:00:48.109Z,94.30
2019-01-15T20:03:36.108Z,94.20
2019-01-15T20:06:30.673Z,94.30
2019-01-15T20:09:36.779Z,94.20
2019-01-15T20:12:18.205Z,93.80
2019-01-15T20:15:04.995Z,94.00
2019-01-15T20:17:44.792Z,93.80
2019-01-15T20:20:30.832Z,93.80
2019-01-15T20:23:27.826Z,93.80
2019-01-15T20:26:23.515Z,93.80
2019-01-15T20:29:10.550Z,93.70
2019-01-15T20:32:04.715Z,93.90
2019-01-15T20:34:50.503Z,93.30
2019-01-15T20:37:39.436Z,93.50
2019-01-15T20:40:32.614Z,93.60
2019-01-15T20:43:19.528Z,93.70
2019-01-15T20:46:06.333Z,93.40
2019-01-15T20:48:46.404Z,92.90
2019-01-15T20:51:25.627Z,93.00
2019-01-15T20:54:19.540Z,93.10
2019-01-15T20:57:09.355Z,93.20
2019-01-15T20:59:48.103Z,93.40
2019-01-15T21:02:34.929Z,93.30
2019-01-15T21:05:26.449Z,93.30
2019-01-15T21:08:17.536Z,93.50
2019-01-15T21:11:04.165Z,93.50
2019-01-15T21:13:58.254Z,93.30
2019-01-15T21:16:52.274Z,93.30
2019-01-15T21:19:38.840Z,93.20
2019-01-15T21:22:39.230Z,93.60
2019-01-15T21:25:25.965Z,93.40
2019-01-15T21:28:12.759Z,93.20
2019-01-15T21:30:55.272Z,93.20
2019-01-15T21:33:43.205Z,93.20
2019-01-15T21:36:37.250Z,93.10
2019-01-15T21:39:35.088Z,93.10
2019-01-15T21:42:24.005Z,93.00
2019-01-15T21:45:17.945Z,93.40
2019-01-15T21:48:04.729Z,93.20
2019-01-15T21:50:55.821Z,93.00
2019-01-15T21:53:49.567Z,93.00
2019-01-15T21:56:28.913Z,93.00
2019-01-15T21:59:13.596Z,92.60
2019-01-15T22:01:55.784Z,92.80
2019-01-15T22:04:46.578Z,92.70
2019-01-15T22:07:46.610Z,92.70
2019-01-15T22:10:36.481Z,92.30
2019-01-15T22:13:24.537Z,92.50
2019-01-15T22:16:21.827Z,92.40
2019-01-15T22:19:11.261Z,92.40
2019-01-15T22:22:17.485Z,92.30
2019-01-15T22:25:03.991Z,92.20
2019-01-15T22:27:50.516Z,92.10
2019-01-15T22:30:47.477Z,92.00
2019-01-15T22:33:34.273Z,92.00
2019-01-15T22:36:13.937Z,92.00
2019-01-15T22:39:00.789Z,92.00
2019-01-15T22:41:48.665Z,91.80
2019-01-15T22:44:29.832Z,91.90
2019-01-15T22:47:36.280Z,91.90
2019-01-15T22:50:40.857Z,91.80
2019-01-15T22:53:25.584Z,92.10
2019-01-15T22:56:13.513Z,91.50
2019-01-15T22:59:07.704Z,91.80
2019-01-15T23:01:47.151Z,91.80
2019-01-15T23:04:27.301Z,91.90
2019-01-15T23:07:30.591Z,92.30
2019-01-15T23:10:17.038Z,92.50
2019-01-15T23:13:13.967Z,92.40
2019-01-15T23:15:48.677Z,92.60
2019-01-15T23:18:39.436Z,92.70
2019-01-15T23:21:33.362Z,92.80
2019-01-15T23:24:33.574Z,92.90
2019-01-15T23:27:20.219Z,93.30
2019-01-15T23:30:11.317Z,93.00
2019-01-15T23:33:17.505Z,93.20
2019-01-15T23:35:57.528Z,93.40
2019-01-15T23:38:44.005Z,93.50
2019-01-15T23:41:30.815Z,93.80
2019-01-15T23:44:19.800Z,93.70
2019-01-15T23:47:00.036Z,93.90
2019-01-15T23:49:47.123Z,94.20
2019-01-15T23:52:37.963Z,94.10
2019-01-15T23:55:16.195Z,94.30
2019-01-15T23:57:53.469Z,94.70
